Data for 06/17/2017

Time Sea-Level Adjusted Pressure Absolute Pressure Temperature Relative Humidity Dew Point   
(mb) (inHg) (mb) (inHg) (C) (F) (%) (C) (F)
00:05 1017 30.03 846 24.98 12 53.5 68 6.2 43.2
00:10 1017 30.03 846 24.98 11.8 53.3 69 6.5 43.6
00:15 1017 30.03 846 24.98 11.7 53 72 6.8 44.2
00:20 1017 30.03 846 24.98 11.4 52.5 73 6.8 44.2
00:25 1017 30.03 846 24.98 11.1 51.9 77 7.3 45.1
00:30 1017 30.03 846 24.98 10.9 51.7 77 7 44.6
00:35 1017 30.03 846 24.98 10.9 51.5 78 7.2 44.9
00:40 1017 30.03 846 24.98 10.8 51.5 74 6.4 43.5
00:45 1017 30.03 846 24.98 11 51.8 72 6.1 42.9
00:50 1017 30.03 846 24.98 11.1 51.9 71 6.1 43
00:55 1017 30.03 846 24.98 11.1 51.9 73 6.4 43.6
01:00 1017 30.03 846 24.98 10.9 51.6 75 6.6 43.8
01:05 1017 30.03 846 24.98 10.7 51.2 73 6.1 43
01:10 1017 30.03 846 24.98 10.7 51.3 72 5.9 42.7
01:15 1017 30.03 846 24.98 10.8 51.4 72 6 42.8
01:20 1017 30.03 846 24.98 10.8 51.4 74 6.4 43.5
01:25 1017 30.03 846 24.98 10.7 51.2 73 6.1 43
01:30 1017 30.03 846 24.98 10.6 51.1 75 6.4 43.5
01:35 1017 30.03 846 24.98 10.4 50.8 77 6.6 43.9
01:40 1017 30.03 846 24.98 10.3 50.5 77 6.5 43.7
01:45 1017 30.03 846 24.98 10.3 50.6 76 6.3 43.3
01:50 1017 30.03 846 24.98 10.5 50.8 75 6.3 43.4
01:55 1017 30.03 846 24.98 10.5 51 74 6.2 43.1
02:00 1017 30.03 846 24.98 10.7 51.3 71 5.7 42.3
02:05 1017 30.03 846 24.98 10.8 51.5 68 5.3 41.5
02:10 1017 30.03 846 24.98 11 51.7 67 5.2 41.3
02:15 1017 30.03 846 24.98 10.9 51.7 67 5 41
02:20 1017 30.03 846 24.98 11 51.8 65 4.8 40.7
02:25 1017 30.03 846 24.98 11 51.9 65 4.8 40.6
02:30 1017 30.03 846 24.98 11 51.8 64 4.5 40
02:35 1017 30.03 846 24.98 11 51.8 63 4.4 39.9
02:40 1017 30.03 846 24.98 11 51.9 63 4.2 39.5
02:45 1017 30.03 846 24.98 11 51.8 62 4.1 39.3
02:50 1017 30.03 846 24.98 11 51.8 62 4.1 39.4
02:55 1017 30.03 846 24.98 11 51.7 63 4.3 39.8
03:00 1017 30.03 847 25.01 10.9 51.6 64 4.3 39.7
03:05 1017 30.03 847 25.01 10.9 51.6 63 4.1 39.4
03:10 1017 30.03 847 25.01 11 51.7 62 4 39.1
03:15 1017 30.03 847 25.01 11 51.7 62 4 39.1
03:20 1017 30.03 847 25.01 11 51.7 63 4.2 39.5
03:25 1017 30.03 847 25.01 10.9 51.5 63 4 39.2
03:30 1017 30.03 847 25.01 10.8 51.4 62 3.9 39.1
03:35 1017 30.03 847 25.01 10.8 51.4 62 3.8 38.8
03:40 1017 30.03 847 25.01 10.8 51.4 61 3.7 38.6
03:45 1018 30.06 847 25.01 10.8 51.4 61 3.6 38.5
03:50 1018 30.06 847 25.01 10.8 51.4 61 3.6 38.5
03:55 1018 30.06 847 25.01 10.8 51.4 61 3.5 38.3
04:00 1018 30.06 847 25.01 10.7 51.3 60 3.4 38.2
04:05 1018 30.06 847 25.01 10.7 51.2 61 3.6 38.4
04:10 1018 30.06 847 25.01 10.6 51.1 62 3.6 38.4
04:15 1018 30.06 847 25.01 10.6 51 62 3.5 38.3
04:20 1018 30.06 847 25.01 10.5 50.9 63 3.7 38.7
04:25 1018 30.06 847 25.01 10.4 50.7 64 3.8 38.9
04:30 1018 30.06 847 25.01 10.2 50.4 64 3.9 39
04:35 1018 30.06 847 25.01 10.1 50.3 65 3.9 39
04:40 1018 30.06 847 25.01 10.1 50.2 65 3.9 38.9
04:45 1018 30.06 847 25.01 10 50 65 3.8 38.8
04:50 1018 30.06 847 25.01 9.9 49.7 66 3.9 39
04:55 1018 30.06 848 25.04 9.7 49.4 67 3.8 38.9
05:00 1018 30.06 848 25.04 9.7 49.4 66 3.7 38.6
05:05 1018 30.06 848 25.04 9.7 49.5 67 3.8 38.9
05:10 1019 30.09 848 25.04 9.6 49.3 67 3.9 39.1
05:15 1019 30.09 848 25.04 9.6 49.3 66 3.6 38.5
05:20 1019 30.09 848 25.04 9.7 49.4 67 3.9 39
05:25 1019 30.09 848 25.04 9.6 49.2 67 3.7 38.7
05:30 1019 30.09 848 25.04 9.5 49.2 67 3.8 38.8
05:35 1019 30.09 848 25.04 9.5 49.1 67 3.7 38.7
05:40 1019 30.09 848 25.04 9.6 49.2 67 3.8 38.8
05:45 1019 30.09 848 25.04 9.6 49.3 66 3.6 38.5
05:50 1019 30.09 848 25.04 9.6 49.4 67 3.7 38.7
05:55 1019 30.09 848 25.04 9.7 49.4 66 3.7 38.7
06:00 1019 30.09 848 25.04 9.7 49.5 66 3.7 38.7
06:05 1019 30.09 849 25.07 9.7 49.5 67 3.9 39
06:10 1019 30.09 849 25.07 9.7 49.4 68 4 39.2
06:15 1019 30.09 849 25.07 9.4 48.9 68 3.8 38.9
06:20 1019 30.09 849 25.07 9.4 48.8 71 4.3 39.7
06:25 1019 30.09 849 25.07 9.1 48.4 71 4.1 39.5
06:30 1019 30.09 849 25.07 9.1 48.4 71 4.1 39.4
06:35 1020 30.12 849 25.07 9.3 48.8 70 4.1 39.4
06:40 1020 30.12 849 25.07 9.3 48.8 70 4.2 39.5
06:45 1020 30.12 849 25.07 9.5 49 68 3.8 38.8
06:50 1020 30.12 849 25.07 9.6 49.3 67 3.8 38.9
06:55 1020 30.12 849 25.07 10 49.9 64 3.6 38.5
07:00 1020 30.12 849 25.07 10.3 50.5 62 3.3 38
07:05 1020 30.12 849 25.07 10.4 50.8 61 3.2 37.8
07:10 1020 30.12 849 25.07 10.5 50.8 61 3.4 38.1
07:15 1020 30.12 849 25.07 10.6 51 61 3.3 37.9
07:20 1020 30.12 849 25.07 10.5 50.9 63 3.7 38.7
07:25 1020 30.12 849 25.07 10.3 50.5 63 3.6 38.5
07:30 1020 30.12 849 25.07 10.1 50.2 64 3.6 38.4
07:35 1020 30.12 849 25.07 10.1 50.1 64 3.6 38.6
07:40 1020 30.12 849 25.07 10.1 50.2 64 3.7 38.7
07:45 1020 30.12 849 25.07 10.2 50.4 64 3.8 38.9
07:50 1020 30.12 850 25.1 10.5 50.8 64 4 39.2
07:55 1020 30.12 850 25.1 10.8 51.4 61 3.7 38.6
08:00 1020 30.12 850 25.1 10.6 51.1 62 3.7 38.7
08:05 1020 30.12 850 25.1 10.7 51.2 60 3.3 37.9
08:10 1020 30.12 850 25.1 11 51.8 58 3 37.5
08:15 1020 30.12 849 25.07 11.2 52.1 56 2.6 36.8
08:20 1020 30.12 849 25.07 10.7 51.3 58 2.9 37.3
08:25 1020 30.12 849 25.07 10.7 51.2 57 2.5 36.5
08:30 1020 30.12 850 25.1 10.8 51.4 56 2.4 36.3
08:35 1020 30.12 850 25.1 10.9 51.6 60 3.4 38.1
08:40 1020 30.12 850 25.1 11 51.8 58 3.2 37.7
08:45 1020 30.12 850 25.1 11.3 52.3 59 3.6 38.4
08:50 1020 30.12 850 25.1 11.4 52.6 57 3.2 37.7
08:55 1021 30.15 850 25.1 11.8 53.2 55 3 37.4
09:00 1021 30.15 850 25.1 11.8 53.2 56 3.2 37.8
09:05 1021 30.15 850 25.1 11.7 53.1 55 2.9 37.3
09:10 1021 30.15 850 25.1 12 53.5 51 2.1 35.9
09:15 1021 30.15 850 25.1 12.1 53.9 53 2.8 37.1
09:20 1021 30.15 850 25.1 12.3 54.2 52 2.7 36.8
09:25 1021 30.15 850 25.1 12.4 54.3 51 2.5 36.5
09:30 1021 30.15 850 25.1 12.5 54.6 49 2.1 35.8
09:35 1021 30.15 850 25.1 13 55.4 47 2.1 35.8
09:40 1021 30.15 850 25.1 13.2 55.8 47 2.1 35.7
09:45 1021 30.15 850 25.1 13.4 56.2 47 2.4 36.2
09:50 1021 30.15 850 25.1 13.6 56.6 45 2.1 35.8
09:55 1021 30.15 850 25.1 13.9 57 44 2 35.6
10:00 1021 30.15 850 25.1 13.8 56.8 45 2.1 35.8
10:05 1021 30.15 850 25.1 13.7 56.7 46 2.4 36.3
10:10 1021 30.15 850 25.1 13.7 56.7 44 1.9 35.5
10:15 1021 30.15 850 25.1 13.4 56 45 1.7 35.1
10:20 1021 30.15 850 25.1 13.4 56.1 45 1.8 35.2
10:25 1021 30.15 850 25.1 13.4 56 45 1.9 35.3
10:30 1021 30.15 850 25.1 13.3 55.9 48 2.5 36.6
10:35 1021 30.15 850 25.1 13.9 57 46 2.5 36.4
10:40 1021 30.15 850 25.1 14.2 57.5 46 2.9 37.2
10:45 1021 30.15 850 25.1 13.8 56.9 48 3.1 37.7
10:50 1021 30.15 850 25.1 13.9 56.9 49 3.3 38
10:55 1021 30.15 850 25.1 13.7 56.6 46 2.2 35.9
11:00 1021 30.15 850 25.1 13.8 56.8 47 2.7 36.8
11:05 1021 30.15 850 25.1 14.2 57.5 47 3.2 37.7
11:10 1021 30.15 850 25.1 13.7 56.7 46 2.5 36.4
11:15 1021 30.15 850 25.1 13.7 56.7 46 2.4 36.3
11:20 1021 30.15 850 25.1 13.8 56.8 44 1.9 35.5
11:25 1021 30.15 850 25.1 13.8 56.9 45 2.3 36.1
11:30 1021 30.15 850 25.1 14.4 57.9 48 3.6 38.4
11:35 1021 30.15 850 25.1 14.2 57.6 50 3.9 39.1
11:40 1021 30.15 850 25.1 14.1 57.4 50 3.9 39
11:45 1021 30.15 850 25.1 13.8 56.8 49 3.4 38.1
11:50 1021 30.15 850 25.1 14.7 58.5 41 1.7 35
11:55 1021 30.15 850 25.1 15 59.1 41 2.1 35.7
12:00 1021 30.15 850 25.1 15.1 59.2 41 1.9 35.4
12:05 1021 30.15 850 25.1 15.5 59.8 39 1.6 34.9
12:10 1021 30.15 850 25.1 14.9 58.8 39 1.1 34
12:15 1021 30.15 850 25.1 15.1 59.1 38 1 33.7
12:20 1021 30.15 850 25.1 15.7 60.3 36 0.8 33.5
12:25 1021 30.15 850 25.1 15.7 60.2 36 0.9 33.6
12:30 1021 30.15 850 25.1 15.7 60.3 37 1.3 34.3
12:35 1021 30.15 850 25.1 16.4 61.5 35 0.9 33.7
12:40 1021 30.15 850 25.1 16.1 61 35 0.8 33.4
12:45 1021 30.15 850 25.1 16.3 61.3 35 0.9 33.6
12:50 1021 30.15 851 25.13 16.1 61 34 0.3 32.6
12:55 1021 30.15 851 25.13 16.7 62.1 33 0.5 32.9
13:00 1021 30.15 850 25.1 16.7 62.1 34 1 33.8
13:05 1021 30.15 851 25.13 16 60.8 35 0.7 33.2
13:10 1021 30.15 850 25.1 16.3 61.3 33 -0.1 31.9
13:15 1021 30.15 850 25.1 16.2 61.2 35 0.9 33.6
13:20 1021 30.15 850 25.1 16.7 62.1 33 0.4 32.8
13:25 1021 30.15 850 25.1 16.3 61.4 37 1.7 35.1
13:30 1021 30.15 850 25.1 16 60.7 34 0.1 32.2
13:35 1021 30.15 850 25.1 16.6 62 33 0.6 33.1
13:40 1021 30.15 850 25.1 17.2 63 33 0.9 33.7
13:45 1021 30.15 850 25.1 17.5 63.5 33 1 33.8
13:50 1021 30.15 850 25.1 17.3 63.1 32 0.6 33.1
13:55 1021 30.15 850 25.1 17.8 64.1 32 1.1 34
14:00 1021 30.15 850 25.1 17.5 63.5 31 0.5 32.9
14:05 1021 30.15 850 25.1 17.6 63.6 31 0.5 32.9
14:10 1021 30.15 850 25.1 17.6 63.6 31 0.6 33
14:15 1021 30.15 850 25.1 17.8 64.1 31 0.4 32.7
14:20 1021 30.15 850 25.1 18.1 64.5 31 0.8 33.4
14:25 1021 30.15 850 25.1 17.5 63.5 32 0.7 33.2
14:30 1021 30.15 850 25.1 17.1 62.8 32 0.6 33.1
14:35 1021 30.15 850 25.1 17.6 63.7 32 0.8 33.4
14:40 1021 30.15 850 25.1 18.1 64.5 29 -0.1 31.8
14:45 1021 30.15 850 25.1 18.2 64.7 31 0.8 33.4
14:50 1021 30.15 850 25.1 17.9 64.2 31 0.5 33
14:55 1021 30.15 850 25.1 17.9 64.2 31 0.7 33.2
15:00 1021 30.15 850 25.1 18 64.3 32 1.1 34.1
15:05 1021 30.15 850 25.1 17.6 63.6 30 -0 32
15:10 1021 30.15 850 25.1 18.1 64.7 29 0 32
15:15 1021 30.15 850 25.1 18.2 64.7 31 0.7 33.2
15:20 1021 30.15 850 25.1 18.3 64.9 28 -0.2 31.6
15:25 1021 30.15 850 25.1 17.8 64 30 0.3 32.5
15:30 1021 30.15 850 25.1 17.5 63.4 29 -0.4 31.2
15:35 1021 30.15 850 25.1 18.2 64.7 30 0.7 33.2
15:40 1021 30.15 850 25.1 18.2 64.8 29 -0.2 31.7
15:45 1021 30.15 850 25.1 18.6 65.4 28 0 32.1
15:50 1021 30.15 850 25.1 18.9 65.9 28 0.1 32.2
15:55 1021 30.15 850 25.1 18.8 65.9 29 0.3 32.6
16:00 1021 30.15 850 25.1 18.7 65.7 27 -0.3 31.4
16:05 1021 30.15 850 25.1 17.7 63.8 31 0.3 32.5
16:10 1021 30.15 850 25.1 18 64.3 29 -0.2 31.6
16:15 1021 30.15 850 25.1 18.6 65.5 28 -0.1 31.8
16:20 1021 30.15 850 25.1 18.9 65.9 28 -0.1 31.9
16:25 1021 30.15 850 25.1 19.4 67 28 0.5 32.9
16:30 1020 30.12 850 25.1 19.7 67.5 27 0.2 32.4
16:35 1020 30.12 850 25.1 20 67.9 27 0.7 33.3
16:40 1020 30.12 850 25.1 19.3 66.7 28 0.6 33
16:45 1020 30.12 850 25.1 19.4 66.9 28 0.6 33.1
16:50 1020 30.12 850 25.1 19.1 66.4 28 0.2 32.3
16:55 1020 30.12 850 25.1 19.1 66.4 29 0.6 33.1
17:00 1020 30.12 850 25.1 18.8 65.9 28 -0.1 31.9
17:05 1020 30.12 850 25.1 18.6 65.4 29 0.5 32.9
17:10 1020 30.12 849 25.07 18.2 64.8 29 -0 32
17:15 1020 30.12 849 25.07 18.3 64.9 28 -0.3 31.4
17:20 1020 30.12 850 25.1 18.3 65 28 -0.2 31.6
17:25 1020 30.12 849 25.07 19 66.2 27 -0.3 31.4
17:30 1020 30.12 849 25.07 19.6 67.3 27 0.4 32.8
17:35 1020 30.12 849 25.07 18.4 65.1 29 0.2 32.4
17:40 1020 30.12 849 25.07 18.1 64.6 29 0 32
17:45 1020 30.12 849 25.07 18.9 66 27 -0.2 31.7
17:50 1020 30.12 849 25.07 19.2 66.5 28 0.1 32.3
17:55 1020 30.12 849 25.07 19.5 67.1 26 -0.2 31.7
18:00 1020 30.12 849 25.07 19.3 66.8 28 0.3 32.5
18:05 1020 30.12 849 25.07 18.8 65.8 28 -0.2 31.7
18:10 1020 30.12 849 25.07 19.2 66.5 28 0.2 32.4
18:15 1020 30.12 849 25.07 19 66.2 28 0.2 32.4
18:20 1020 30.12 849 25.07 19 66.3 27 -0.1 31.9
18:25 1020 30.12 849 25.07 19.1 66.3 27 -0.1 31.8
18:30 1020 30.12 849 25.07 18.9 66.1 29 0.5 33
18:35 1020 30.12 849 25.07 18.8 65.9 28 0.1 32.1
18:40 1020 30.12 849 25.07 19.3 66.7 27 0.1 32.2
18:45 1020 30.12 849 25.07 19.8 67.7 26 -0.2 31.6
18:50 1020 30.12 849 25.07 19.9 67.9 26 0.2 32.4
18:55 1020 30.12 849 25.07 19.9 67.8 26 0.1 32.1
19:00 1020 30.12 849 25.07 19.7 67.4 26 -0.2 31.7
19:05 1020 30.12 849 25.07 19.7 67.4 26 0 32.1
19:10 1020 30.12 849 25.07 19.4 66.8 27 -0.2 31.7
19:15 1020 30.12 849 25.07 19.4 66.9 27 0.2 32.4
19:20 1020 30.12 849 25.07 18.9 66 28 0.3 32.6
19:25 1020 30.12 849 25.07 18.1 64.6 30 0.4 32.8
19:30 1020 30.12 849 25.07 18.3 65 30 0.4 32.8
19:35 1020 30.12 849 25.07 17.9 64.3 30 0.4 32.8
19:40 1020 30.12 849 25.07 17.6 63.8 31 0.5 33
19:45 1020 30.12 849 25.07 17.6 63.8 31 0.5 32.9
19:50 1020 30.12 849 25.07 17.4 63.3 31 0.2 32.4
19:55 1020 30.12 849 25.07 17.3 63.2 31 0.3 32.5
20:00 1020 30.12 849 25.07 17.7 63.9 30 0.2 32.3
20:05 1020 30.12 849 25.07 17.6 63.6 30 -0 32
20:10 1020 30.12 849 25.07 17.3 63.1 31 0 32
20:15 1020 30.12 849 25.07 17.3 63.2 30 -0.1 31.8
20:20 1020 30.12 849 25.07 17.2 63 31 0.3 32.5
20:25 1020 30.12 849 25.07 17.1 62.8 32 0.2 32.4
20:30 1020 30.12 849 25.07 17 62.6 31 -0.1 31.8
20:35 1020 30.12 849 25.07 16.9 62.4 32 0.1 32.2
20:40 1020 30.12 849 25.07 16.8 62.2 31 -0.3 31.4
20:45 1020 30.12 849 25.07 16.8 62.2 31 -0.3 31.5
20:50 1020 30.12 849 25.07 16.7 62.1 31 -0.2 31.6
20:55 1020 30.12 849 25.07 16.6 62 32 -0.1 31.9
21:00 1020 30.12 849 25.07 16.6 61.9 31 -0.5 31.2
21:05 1020 30.12 849 25.07 16.6 61.9 31 -0.5 31.1
21:10 1020 30.12 849 25.07 16.6 61.8 31 -0.7 30.8
21:15 1020 30.12 849 25.07 16.4 61.5 39 2.6 36.6
21:20 1020 30.12 849 25.07 15.5 59.9 44 3.3 38
21:25 1020 30.12 849 25.07 15 59 46 3.6 38.5
21:30 1020 30.12 849 25.07 14.6 58.4 48 4 39.1
21:35 1020 30.12 849 25.07 14.2 57.5 50 4.1 39.3
21:40 1020 30.12 849 25.07 13.8 56.9 51 3.9 39
21:45 1020 30.12 849 25.07 13.5 56.3 53 4.1 39.4
21:50 1020 30.12 849 25.07 13.1 55.6 54 4.1 39.5
21:55 1020 30.12 849 25.07 12.7 54.9 56 4.2 39.5
22:00 1020 30.12 849 25.07 12.5 54.4 57 4.2 39.6
22:05 1020 30.12 850 25.1 12.4 54.2 56 4 39.2
22:10 1020 30.12 850 25.1 12.3 54.2 58 4.3 39.8
22:15 1020 30.12 850 25.1 12.1 53.8 57 4 39.3
22:20 1020 30.12 850 25.1 12.1 53.7 57 3.9 39
22:25 1021 30.15 850 25.1 12 53.6 57 3.9 39
22:30 1021 30.15 850 25.1 12 53.5 57 3.8 38.9
22:35 1021 30.15 850 25.1 12 53.5 57 3.9 38.9
22:40 1021 30.15 850 25.1 11.9 53.5 58 4 39.2
22:45 1021 30.15 850 25.1 11.9 53.4 57 3.8 38.8
22:50 1021 30.15 850 25.1 11.8 53.2 57 3.7 38.6
22:55 1021 30.15 850 25.1 11.8 53.3 57 3.5 38.3
23:00 1020 30.12 850 25.1 11.8 53.2 59 4.1 39.3
23:05 1020 30.12 850 25.1 11.7 53 58 3.7 38.7
23:10 1020 30.12 850 25.1 11.7 53 57 3.5 38.2
23:15 1020 30.12 850 25.1 11.6 53 57 3.5 38.3
23:20 1020 30.12 850 25.1 11.7 53 57 3.4 38.1
23:25 1020 30.12 850 25.1 12 53.5 55 3.4 38.1
23:30 1020 30.12 850 25.1 12.1 53.9 55 3.5 38.3
23:35 1020 30.12 850 25.1 12.1 53.7 56 3.6 38.6
23:40 1020 30.12 850 25.1 12 53.7 56 3.6 38.5
23:45 1020 30.12 849 25.07 12 53.6 55 3.4 38.1
23:50 1020 30.12 849 25.07 12.1 53.7 56 3.7 38.6
23:55 1020 30.12 850 25.1 12 53.6 56 3.6 38.5
24:00 1020 30.12 850 25.1 12 53.6 56 3.6 38.5